Time;durP1;ratioP1;P1;durP2;ratioP2;P2;SDS_P1;SDS_P2;PMS_P1;PMS_P2;Temp;Humidity;BMP_temperature;BMP_pressure;BME280_temperature;BME280_humidity;BME280_pressure;Samples;Min_cycle;Max_cycle;Signal;HPM_P1;HPM_P2
2021/08/28 00:01:43;;;;;;;3.22;1.25;;;16.20;99.90;;;;;;5078227;28;20431;-89
2021/08/28 00:04:09;;;;;;;4.80;1.58;;;16.20;99.90;;;;;;5078213;28;20057;-89
2021/08/28 00:06:34;;;;;;;3.45;1.20;;;16.20;99.90;;;;;;5078026;28;20403;-89
2021/08/28 00:09:00;;;;;;;3.45;1.17;;;16.20;99.90;;;;;;5078146;28;20021;-89
2021/08/28 00:11:26;;;;;;;3.83;1.35;;;16.10;99.90;;;;;;5077970;28;20379;-89
2021/08/28 00:13:51;;;;;;;5.35;1.30;;;16.10;99.90;;;;;;5077962;28;20024;-89
2021/08/28 00:16:17;;;;;;;4.15;1.23;;;16.10;99.90;;;;;;5077779;28;20028;-89
2021/08/28 00:18:43;;;;;;;3.15;1.15;;;16.10;99.90;;;;;;5060988;28;20021;-88
2021/08/28 00:21:08;;;;;;;4.50;1.20;;;16.10;99.90;;;;;;5078686;28;20024;-89
2021/08/28 00:23:34;;;;;;;8.55;1.35;;;16.10;99.90;;;;;;5077857;28;20472;-89
2021/08/28 00:26:00;;;;;;;3.92;1.42;;;16.10;99.90;;;;;;5078024;28;20480;-88
2021/08/28 00:28:26;;;;;;;3.17;1.02;;;16.00;99.90;;;;;;5078036;28;20024;-89
2021/08/28 00:30:51;;;;;;;3.25;1.30;;;16.00;99.90;;;;;;5095659;28;20032;-89
2021/08/28 00:33:17;;;;;;;3.72;0.95;;;15.90;99.90;;;;;;5077542;28;20097;-90
2021/08/28 00:35:43;;;;;;;7.72;1.33;;;15.90;99.90;;;;;;5077414;28;20024;-89
2021/08/28 00:38:10;;;;;;;2.75;1.20;;;16.00;99.90;;;;;;5077712;28;20480;-89
2021/08/28 00:40:37;;;;;;;3.10;1.13;;;16.00;99.90;;;;;;5077304;28;20024;-90
2021/08/28 00:43:04;;;;;;;5.40;1.20;;;16.20;99.90;;;;;;5077342;28;20073;-90
2021/08/28 00:45:37;;;;;;;3.08;1.40;;;16.20;99.90;;;;;;5077281;28;20024;-89
2021/08/28 00:48:05;;;;;;;2.80;1.05;;;16.20;99.90;;;;;;5077197;28;20415;-89
2021/08/28 00:50:33;;;;;;;3.80;1.27;;;16.20;99.90;;;;;;5077177;28;20153;-89
2021/08/28 00:53:03;;;;;;;1.65;0.90;;;16.20;99.90;;;;;;5077147;28;20020;-89
2021/08/28 00:55:30;;;;;;;2.08;1.02;;;16.10;99.90;;;;;;5077154;28;20027;-89
2021/08/28 00:58:02;;;;;;;4.78;1.13;;;16.00;99.90;;;;;;5095041;28;20082;-89
2021/08/28 01:00:30;;;;;;;3.88;1.23;;;16.00;99.90;;;;;;5076947;28;20391;-89
2021/08/28 01:02:57;;;;;;;4.38;1.00;;;16.10;99.90;;;;;;5095245;28;20020;-89
2021/08/28 01:05:33;;;;;;;2.53;1.02;;;16.10;99.90;;;;;;5076814;28;20024;-89
2021/08/28 01:08:30;;;;;;;3.47;1.20;;;16.20;99.90;;;;;;5077597;28;20020;-90
2021/08/28 01:11:24;;;;;;;6.18;1.33;;;16.20;99.90;;;;;;5077316;28;20373;-89
2021/08/28 01:13:53;;;;;;;2.30;0.93;;;16.10;99.90;;;;;;5076726;28;20424;-89
2021/08/28 01:16:20;;;;;;;2.85;1.00;;;16.20;99.90;;;;;;5076570;28;20864;-89
2021/08/28 01:18:46;;;;;;;3.78;1.02;;;16.10;99.90;;;;;;5076950;28;20031;-89
2021/08/28 01:21:40;;;;;;;3.75;1.20;;;16.10;99.90;;;;;;5094741;28;20032;-89
2021/08/28 01:24:08;;;;;;;1.73;1.05;;;16.10;99.90;;;;;;5073133;28;20093;-89
2021/08/28 01:26:40;;;;;;;3.80;1.48;;;16.10;99.90;;;;;;5094615;28;20498;-89
2021/08/28 01:29:29;;;;;;;3.03;1.40;;;15.90;99.90;;;;;;5076465;28;20050;-89
2021/08/28 01:31:55;;;;;;;4.53;1.30;;;15.90;99.90;;;;;;5077059;28;20028;-89
2021/08/28 01:34:22;;;;;;;1.90;1.10;;;15.90;99.90;;;;;;5076401;28;20032;-89
2021/08/28 01:36:49;;;;;;;2.45;1.10;;;15.90;99.90;;;;;;5076166;28;20480;-89
2021/08/28 01:39:16;;;;;;;1.65;1.20;;;16.00;99.90;;;;;;5077311;28;20016;-89
2021/08/28 01:41:51;;;;;;;3.55;1.17;;;15.90;99.90;;;;;;5077823;28;20132;-90
2021/08/28 01:44:18;;;;;;;2.95;1.40;;;15.90;99.90;;;;;;5079095;28;20361;-88
2021/08/28 01:46:44;;;;;;;2.88;1.40;;;15.90;99.90;;;;;;5088735;28;20032;-89
2021/08/28 01:49:12;;;;;;;3.30;1.30;;;15.90;99.90;;;;;;5087205;28;20059;-89
2021/08/28 01:51:40;;;;;;;3.63;1.67;;;16.00;99.90;;;;;;5095706;28;20028;-89
2021/08/28 01:54:06;;;;;;;5.38;1.83;;;16.00;99.90;;;;;;5076934;28;20028;-89
2021/08/28 01:56:33;;;;;;;2.80;1.70;;;15.80;99.90;;;;;;5076414;28;20039;-89
2021/08/28 01:59:00;;;;;;;3.72;1.67;;;15.80;99.90;;;;;;5076050;28;20020;-89
2021/08/28 02:01:27;;;;;;;6.68;1.75;;;15.80;99.90;;;;;;5076012;28;20028;-89
2021/08/28 02:03:53;;;;;;;4.13;1.75;;;16.00;99.90;;;;;;5076500;28;20518;-89
2021/08/28 02:06:32;;;;;;;4.00;1.60;;;15.90;99.90;;;;;;5075878;28;20058;-89
2021/08/28 02:09:10;;;;;;;4.45;1.88;;;15.90;99.90;;;;;;5076014;28;20024;-89
2021/08/28 02:11:50;;;;;;;4.07;1.95;;;15.90;99.90;;;;;;5075929;28;20391;-89
2021/08/28 02:14:24;;;;;;;4.22;1.85;;;15.70;99.90;;;;;;5075984;28;20024;-89
2021/08/28 02:16:50;;;;;;;4.75;1.95;;;15.60;99.90;;;;;;5093968;28;20034;-89
2021/08/28 02:19:27;;;;;;;4.20;2.20;;;15.60;99.90;;;;;;5075667;28;20123;-89
2021/08/28 02:21:57;;;;;;;2.95;1.77;;;15.70;99.90;;;;;;5075849;28;20020;-89
2021/08/28 02:24:27;;;;;;;6.43;2.30;;;15.80;99.90;;;;;;5093819;28;20422;-89
2021/08/28 02:27:07;;;;;;;3.78;2.10;;;15.80;99.90;;;;;;5075607;28;20110;-89
2021/08/28 02:29:50;;;;;;;3.35;1.90;;;15.80;99.90;;;;;;5075713;28;20081;-89
2021/08/28 02:32:16;;;;;;;2.28;1.98;;;15.80;99.90;;;;;;5093692;28;20021;-89
2021/08/28 02:34:43;;;;;;;3.47;2.13;;;15.90;99.90;;;;;;5075622;28;20028;-89
2021/08/28 02:37:10;;;;;;;4.28;1.88;;;15.90;99.90;;;;;;5075304;28;20036;-90
2021/08/28 02:39:38;;;;;;;4.07;1.75;;;15.90;99.90;;;;;;5075514;28;20476;-89
2021/08/28 02:42:05;;;;;;;3.47;1.90;;;15.90;99.90;;;;;;5075456;28;20013;-89
2021/08/28 02:44:32;;;;;;;3.85;1.40;;;16.00;99.90;;;;;;5075433;28;20387;-89
2021/08/28 02:47:00;;;;;;;5.00;2.20;;;16.00;99.90;;;;;;5075295;28;20503;-89
2021/08/28 02:49:26;;;;;;;3.20;1.95;;;16.00;99.90;;;;;;5093328;28;20132;-89
2021/08/28 02:51:52;;;;;;;3.85;1.88;;;16.00;99.90;;;;;;5075371;28;20552;-89
2021/08/28 02:54:19;;;;;;;3.80;2.20;;;15.90;99.90;;;;;;5075361;28;20107;-89
2021/08/28 02:56:48;;;;;;;5.45;2.25;;;15.80;99.90;;;;;;5075084;28;20024;-89
2021/08/28 02:59:17;;;;;;;4.10;1.65;;;15.80;99.90;;;;;;5075239;28;20028;-89
2021/08/28 03:01:44;;;;;;;4.97;2.70;;;15.90;99.90;;;;;;5078063;28;20020;-89
2021/08/28 03:04:11;;;;;;;4.35;2.30;;;15.90;99.90;;;;;;5079214;28;20028;-89
2021/08/28 03:06:39;;;;;;;4.20;1.98;;;15.80;99.90;;;;;;5097383;28;20024;-90
2021/08/28 03:09:04;;;;;;;3.22;1.88;;;15.70;99.90;;;;;;5079138;28;20024;-89
2021/08/28 03:11:30;;;;;;;3.67;2.22;;;15.70;99.90;;;;;;5097239;28;20028;-89
2021/08/28 03:13:56;;;;;;;4.70;2.30;;;15.70;99.90;;;;;;5078867;28;20392;-89
2021/08/28 03:16:25;;;;;;;3.88;1.95;;;15.80;99.90;;;;;;5078924;28;20064;-89
2021/08/28 03:18:54;;;;;;;4.85;2.80;;;15.70;99.90;;;;;;5078977;28;20074;-89
2021/08/28 03:21:21;;;;;;;4.38;2.63;;;15.80;99.90;;;;;;5078787;28;20024;-89
2021/08/28 03:23:48;;;;;;;5.68;2.80;;;15.70;99.90;;;;;;5078880;28;20028;-89
2021/08/28 03:26:15;;;;;;;3.67;2.10;;;15.60;99.90;;;;;;5096914;28;20024;-90
2021/08/28 03:28:41;;;;;;;2.80;2.17;;;15.60;99.90;;;;;;5078793;28;20154;-89
2021/08/28 03:31:08;;;;;;;6.82;2.67;;;15.70;99.90;;;;;;5078615;28;20392;-88
2021/08/28 03:33:35;;;;;;;6.30;3.08;;;15.70;99.90;;;;;;5078631;28;20395;-90
2021/08/28 03:36:02;;;;;;;5.03;3.15;;;15.80;99.90;;;;;;5078514;28;20392;-89
2021/08/28 03:38:28;;;;;;;4.30;2.58;;;15.80;99.90;;;;;;5078516;28;20020;-89
2021/08/28 03:40:54;;;;;;;4.50;2.97;;;15.70;99.90;;;;;;5078559;28;20031;-89
2021/08/28 03:43:20;;;;;;;4.53;2.90;;;15.60;99.90;;;;;;5078417;28;20016;-89
2021/08/28 03:45:49;;;;;;;7.07;3.00;;;15.70;99.90;;;;;;5078504;28;20020;-89
2021/08/28 03:48:16;;;;;;;7.18;3.90;;;15.70;99.90;;;;;;5078238;28;20129;-89
2021/08/28 03:50:42;;;;;;;5.07;2.95;;;15.70;99.90;;;;;;5078922;28;20016;-89
2021/08/28 03:53:08;;;;;;;6.35;3.58;;;15.70;99.90;;;;;;5079418;28;20111;-90
2021/08/28 03:55:33;;;;;;;6.72;3.75;;;15.70;99.90;;;;;;5080490;28;20030;-89
2021/08/28 03:57:59;;;;;;;6.97;3.55;;;15.70;99.90;;;;;;5086735;28;20055;-89
2021/08/28 04:00:25;;;;;;;6.00;3.13;;;15.70;99.90;;;;;;5088303;28;20020;-89
2021/08/28 04:02:50;;;;;;;7.53;4.13;;;15.50;99.90;;;;;;5081703;28;20016;-90
2021/08/28 04:05:16;;;;;;;4.10;2.50;;;15.40;99.90;;;;;;5079037;28;20042;-89
2021/08/28 04:07:43;;;;;;;8.90;4.53;;;15.30;99.90;;;;;;5079333;28;20036;-89
2021/08/28 04:10:09;;;;;;;4.32;3.88;;;15.40;99.90;;;;;;5078128;28;20062;-89
2021/08/28 04:12:35;;;;;;;5.93;4.38;;;15.50;99.90;;;;;;5077757;28;20118;-89
2021/08/28 04:15:00;;;;;;;3.80;2.78;;;15.40;99.90;;;;;;5096208;28;20024;-89
2021/08/28 04:17:26;;;;;;;8.20;4.30;;;15.50;99.90;;;;;;5077894;28;20054;-89
2021/08/28 04:19:52;;;;;;;9.63;4.57;;;15.60;99.90;;;;;;5077972;28;20526;-89
2021/08/28 04:22:17;;;;;;;8.10;4.40;;;15.50;99.90;;;;;;5077886;28;20097;-89
2021/08/28 04:24:43;;;;;;;5.47;3.80;;;15.40;99.90;;;;;;5077777;28;20023;-89
2021/08/28 04:27:09;;;;;;;7.20;4.13;;;15.40;99.90;;;;;;5077767;28;20028;-89
2021/08/28 04:29:34;;;;;;;7.85;3.80;;;15.50;99.90;;;;;;5077689;28;20028;-89
2021/08/28 04:32:00;;;;;;;6.95;4.30;;;15.70;99.90;;;;;;5077760;28;20073;-90
2021/08/28 04:34:26;;;;;;;11.18;5.53;;;15.60;99.90;;;;;;5077845;28;20032;-90
2021/08/28 04:36:51;;;;;;;10.30;5.22;;;15.50;99.90;;;;;;5077661;28;20554;-90
2021/08/28 04:39:18;;;;;;;12.15;6.00;;;15.50;99.90;;;;;;5077973;28;20468;-90
2021/08/28 04:41:43;;;;;;;8.60;5.60;;;15.10;99.90;;;;;;5077683;28;20031;-91
2021/08/28 04:44:09;;;;;;;6.32;4.45;;;15.20;99.90;;;;;;5077766;28;20020;-90
2021/08/28 04:46:35;;;;;;;6.10;3.42;;;15.30;99.90;;;;;;5077506;28;20116;-89
2021/08/28 04:49:00;;;;;;;5.88;3.80;;;15.40;99.90;;;;;;5077049;28;20078;-90
2021/08/28 04:51:26;;;;;;;5.63;4.32;;;15.60;99.90;;;;;;5095282;28;20039;-89
2021/08/28 04:53:52;;;;;;;9.15;5.00;;;15.70;99.90;;;;;;5095294;28;20416;-89
2021/08/28 04:56:17;;;;;;;6.50;3.83;;;15.50;99.90;;;;;;5077050;28;20024;-89
2021/08/28 04:58:44;;;;;;;6.68;4.07;;;15.40;99.90;;;;;;5077119;28;20035;-88
2021/08/28 05:01:10;;;;;;;6.05;4.60;;;15.60;99.90;;;;;;5076931;28;20020;-89
2021/08/28 05:03:35;;;;;;;8.52;5.90;;;15.60;99.90;;;;;;5076875;28;20097;-88
2021/08/28 05:06:02;;;;;;;8.02;5.22;;;15.40;99.90;;;;;;5095097;28;20028;-89
2021/08/28 05:08:28;;;;;;;3.92;2.47;;;15.30;99.90;;;;;;5077633;28;20028;-88
2021/08/28 05:10:53;;;;;;;6.55;4.82;;;15.40;99.90;;;;;;5076839;28;20030;-88
2021/08/28 05:13:19;;;;;;;6.22;4.90;;;15.60;99.90;;;;;;5077020;28;20024;-89
2021/08/28 05:15:45;;;;;;;6.65;5.13;;;15.60;99.90;;;;;;5094815;28;20043;-89
2021/08/28 05:18:10;;;;;;;14.70;6.70;;;15.40;99.90;;;;;;5076614;28;20024;-89
2021/08/28 05:20:36;;;;;;;9.18;6.15;;;15.30;99.90;;;;;;5076753;28;20071;-89
2021/08/28 05:23:02;;;;;;;9.35;7.40;;;15.10;99.90;;;;;;5094290;28;20031;-89
2021/08/28 05:25:27;;;;;;;7.30;4.68;;;15.10;99.90;;;;;;5094623;28;20411;-89
2021/08/28 05:27:54;;;;;;;10.15;6.65;;;15.00;99.90;;;;;;5076643;28;20051;-89
2021/08/28 05:30:20;;;;;;;10.38;7.20;;;15.20;99.90;;;;;;5076496;28;20052;-89
2021/08/28 05:32:46;;;;;;;6.68;4.53;;;15.10;99.90;;;;;;5094641;28;20050;-89
2021/08/28 05:35:12;;;;;;;6.05;4.25;;;15.10;99.90;;;;;;5094565;28;20024;-89
2021/08/28 05:37:38;;;;;;;5.25;4.18;;;15.30;99.90;;;;;;5094255;28;20027;-89
2021/08/28 05:40:10;;;;;;;6.65;4.47;;;15.40;99.90;;;;;;5077316;28;20024;-89
2021/08/28 05:42:36;;;;;;;8.30;6.05;;;15.40;99.90;;;;;;5094494;28;20102;-89
2021/08/28 05:45:02;;;;;;;6.63;4.65;;;15.50;99.90;;;;;;5076086;28;20474;-89
2021/08/28 05:47:28;;;;;;;12.23;6.47;;;15.60;99.90;;;;;;5075863;28;20031;-89
2021/08/28 05:49:53;;;;;;;12.60;7.28;;;15.40;99.90;;;;;;5076031;28;20031;-89
2021/08/28 05:52:19;;;;;;;8.15;3.83;;;15.30;99.90;;;;;;5075995;28;20036;-88
2021/08/28 05:54:45;;;;;;;8.68;5.53;;;15.50;99.90;;;;;;5075985;28;20503;-90
2021/08/28 05:57:11;;;;;;;9.27;6.93;;;15.70;99.90;;;;;;5076218;28;20034;-90
2021/08/28 05:59:36;;;;;;;8.05;5.70;;;15.70;99.90;;;;;;5076065;28;20051;-89
2021/08/28 06:02:02;;;;;;;7.53;4.85;;;15.50;99.90;;;;;;5076004;28;20430;-89
2021/08/28 06:04:28;;;;;;;8.32;6.25;;;15.40;99.90;;;;;;5094014;28;20016;-89
2021/08/28 06:06:54;;;;;;;7.13;4.65;;;15.30;99.90;;;;;;5094381;28;20455;-88
2021/08/28 06:09:19;;;;;;;8.65;5.90;;;15.30;99.90;;;;;;5081115;28;20039;-89
2021/08/28 06:11:45;;;;;;;8.18;4.38;;;15.30;99.90;;;;;;5113474;28;20020;-89
2021/08/28 06:14:11;;;;;;;7.30;5.25;;;15.50;99.90;;;;;;5090423;28;20095;-89
2021/08/28 06:16:36;;;;;;;6.50;5.53;;;15.40;99.90;;;;;;5077450;28;20085;-89
2021/08/28 06:19:02;;;;;;;6.50;3.72;;;15.40;99.90;;;;;;5076788;28;20028;-88
2021/08/28 06:21:28;;;;;;;5.57;4.25;;;15.50;99.90;;;;;;5076209;28;20017;-89
2021/08/28 06:23:54;;;;;;;6.30;4.28;;;15.50;99.90;;;;;;5093936;28;20027;-89
2021/08/28 06:26:20;;;;;;;7.75;4.75;;;15.60;99.90;;;;;;5075774;28;20057;-89
2021/08/28 06:28:46;;;;;;;7.95;5.60;;;15.60;99.90;;;;;;5093671;28;20085;-89
2021/08/28 06:31:11;;;;;;;8.20;4.82;;;15.50;99.90;;;;;;5075544;28;20035;-89
2021/08/28 06:33:37;;;;;;;7.30;4.68;;;15.70;99.90;;;;;;5075482;28;20024;-88
2021/08/28 06:36:03;;;;;;;9.77;5.38;;;15.70;99.90;;;;;;5075356;28;20032;-89
2021/08/28 06:38:32;;;;;;;6.88;4.55;;;15.70;99.90;;;;;;5075496;28;20107;-89
2021/08/28 06:40:59;;;;;;;7.28;5.10;;;15.80;99.90;;;;;;5075391;28;20077;-88
2021/08/28 06:43:25;;;;;;;9.10;5.30;;;15.90;99.90;;;;;;5075412;28;20020;-89
2021/08/28 06:45:52;;;;;;;6.43;4.75;;;15.80;99.90;;;;;;5075318;28;20020;-88
2021/08/28 06:48:17;;;;;;;8.05;5.90;;;15.80;99.90;;;;;;5093399;28;20404;-89
2021/08/28 06:50:43;;;;;;;9.15;5.25;;;15.90;99.90;;;;;;5075569;28;20024;-89
2021/08/28 06:53:09;;;;;;;6.15;4.32;;;16.00;99.90;;;;;;5075742;28;20048;-89
2021/08/28 06:55:35;;;;;;;7.78;5.25;;;16.10;99.90;;;;;;5075386;28;20032;-89
2021/08/28 06:58:01;;;;;;;5.72;4.90;;;16.10;99.90;;;;;;5093452;28;20031;-90
2021/08/28 07:00:26;;;;;;;7.55;5.72;;;16.20;99.90;;;;;;5075309;28;20032;-91
2021/08/28 07:02:52;;;;;;;5.65;5.05;;;16.20;99.90;;;;;;5075485;28;20478;-90
2021/08/28 07:05:18;;;;;;;6.35;4.65;;;16.50;99.90;;;;;;5075502;28;20020;-90
2021/08/28 07:07:44;;;;;;;7.57;5.20;;;16.50;99.90;;;;;;5075514;28;20050;-90
2021/08/28 07:10:10;;;;;;;5.72;4.82;;;16.40;99.90;;;;;;5075214;28;20024;-90
2021/08/28 07:12:36;;;;;;;6.65;4.15;;;16.30;99.90;;;;;;5075346;28;20029;-89
2021/08/28 07:15:03;;;;;;;6.05;4.80;;;16.30;99.90;;;;;;5075548;28;20032;-89
2021/08/28 07:17:28;;;;;;;5.50;4.90;;;16.30;99.90;;;;;;5093389;28;20028;-90
2021/08/28 07:19:54;;;;;;;5.78;4.10;;;16.10;99.90;;;;;;5075360;28;20536;-89
2021/08/28 07:22:20;;;;;;;9.30;4.95;;;16.00;99.90;;;;;;5075257;28;20024;-89
2021/08/28 07:24:45;;;;;;;7.63;6.30;;;15.90;99.90;;;;;;5075083;28;20020;-89
2021/08/28 07:27:11;;;;;;;6.65;5.30;;;15.90;99.90;;;;;;5075150;28;20105;-90
2021/08/28 07:29:37;;;;;;;8.05;6.18;;;15.90;99.90;;;;;;5093281;28;20020;-90
2021/08/28 07:32:03;;;;;;;9.10;5.50;;;16.00;99.90;;;;;;5075169;28;20032;-90
2021/08/28 07:34:29;;;;;;;4.93;4.53;;;16.00;99.90;;;;;;5093605;28;20021;-90
2021/08/28 07:36:55;;;;;;;6.82;5.78;;;16.00;99.90;;;;;;5075153;28;20447;-90
2021/08/28 07:39:20;;;;;;;6.43;5.50;;;15.90;99.90;;;;;;5093650;28;20052;-90
2021/08/28 07:41:46;;;;;;;9.35;5.40;;;15.80;99.90;;;;;;5075302;28;20017;-91
2021/08/28 07:44:12;;;;;;;7.65;6.22;;;15.80;99.90;;;;;;5075223;28;20035;-90
2021/08/28 07:46:37;;;;;;;8.00;5.25;;;15.70;99.90;;;;;;5075915;28;20078;-90
2021/08/28 07:49:03;;;;;;;7.80;5.97;;;15.80;99.90;;;;;;5097262;28;20052;-90
2021/08/28 07:51:29;;;;;;;7.28;5.43;;;15.80;99.90;;;;;;5078429;28;20047;-90
2021/08/28 07:53:54;;;;;;;7.97;4.82;;;15.90;99.90;;;;;;5078607;28;20024;-91
2021/08/28 07:56:20;;;;;;;6.90;5.07;;;15.90;99.90;;;;;;5078742;28;20028;-91
2021/08/28 07:58:46;;;;;;;8.18;6.38;;;15.90;99.90;;;;;;5078474;28;20020;-89
2021/08/28 08:01:13;;;;;;;5.32;4.80;;;15.80;99.90;;;;;;5096327;28;20027;-89
2021/08/28 08:03:39;;;;;;;5.00;3.83;;;15.80;99.90;;;;;;5078568;28;20028;-89
2021/08/28 08:06:04;;;;;;;9.25;5.57;;;15.90;99.90;;;;;;5078049;28;20024;-88
2021/08/28 08:08:30;;;;;;;4.60;3.35;;;15.90;99.90;;;;;;5096215;28;20016;-89
2021/08/28 08:10:56;;;;;;;8.73;5.53;;;16.10;99.90;;;;;;5078086;28;20024;-89
2021/08/28 08:13:21;;;;;;;5.28;4.05;;;16.30;99.90;;;;;;5078038;28;20016;-89
2021/08/28 08:15:47;;;;;;;7.78;4.72;;;16.60;99.90;;;;;;5078059;28;20020;-89
2021/08/28 08:18:13;;;;;;;7.88;5.95;;;16.50;99.90;;;;;;5096550;28;20546;-89
2021/08/28 08:20:38;;;;;;;7.00;4.30;;;16.50;99.90;;;;;;5080411;28;20093;-88
2021/08/28 08:23:04;;;;;;;6.10;4.60;;;16.50;99.90;;;;;;5100129;28;20377;-88
2021/08/28 08:25:31;;;;;;;5.40;4.35;;;16.60;99.90;;;;;;5096754;28;20046;-89
2021/08/28 08:27:56;;;;;;;5.65;3.72;;;16.80;99.90;;;;;;5080644;28;20111;-88
2021/08/28 08:30:22;;;;;;;4.93;2.88;;;16.90;99.90;;;;;;5079290;28;20600;-88
2021/08/28 08:32:48;;;;;;;3.33;3.00;;;17.20;99.90;;;;;;5079335;28;20069;-89
2021/08/28 08:35:15;;;;;;;4.05;2.78;;;17.10;99.90;;;;;;5078720;28;20364;-88
2021/08/28 08:37:40;;;;;;;5.78;3.30;;;17.20;99.90;;;;;;5077392;28;20093;-89
2021/08/28 08:40:07;;;;;;;3.13;2.55;;;17.30;99.90;;;;;;5077331;28;20020;-88
2021/08/28 08:42:35;;;;;;;3.90;2.53;;;17.60;99.90;;;;;;5077347;28;20028;-87
2021/08/28 08:45:04;;;;;;;2.63;1.85;;;17.90;99.90;;;;;;5078391;28;20410;-88
2021/08/28 08:47:31;;;;;;;2.35;1.90;;;18.00;99.90;;;;;;5076722;28;20107;-89
2021/08/28 08:49:59;;;;;;;3.85;2.20;;;18.20;99.90;;;;;;5078276;28;20498;-90
2021/08/28 08:52:25;;;;;;;3.45;2.20;;;18.00;99.90;;;;;;5078851;28;20028;-89
2021/08/28 08:54:51;;;;;;;6.25;2.08;;;17.90;99.90;;;;;;5079228;28;20052;-90
2021/08/28 08:57:18;;;;;;;3.45;1.95;;;17.70;99.90;;;;;;5077317;28;20024;-90
2021/08/28 08:59:44;;;;;;;4.68;1.80;;;17.60;99.90;;;;;;5077202;28;20043;-90
2021/08/28 09:02:09;;;;;;;2.97;1.75;;;17.60;99.90;;;;;;5077516;28;20376;-90
2021/08/28 09:04:35;;;;;;;1.70;1.60;;;17.60;99.90;;;;;;5077371;28;20028;-85
2021/08/28 09:07:02;;;;;;;3.88;1.95;;;17.40;99.90;;;;;;5077029;28;20024;-85
2021/08/28 09:09:28;;;;;;;4.15;2.05;;;17.10;99.90;;;;;;5076876;28;20028;-85
2021/08/28 09:12:02;;;;;;;3.35;2.03;;;16.90;99.90;;;;;;5076704;28;20031;-85
2021/08/28 09:14:28;;;;;;;;;;;17.10;99.90;;;;;;5077474;28;20028;-85
2021/08/28 09:16:54;;;;;;;3.47;1.60;;;17.20;99.90;;;;;;5076658;28;20260;-84
2021/08/28 09:19:42;;;;;;;2.88;1.58;;;17.20;99.90;;;;;;5076991;28;20479;-84
2021/08/28 09:22:28;;;;;;;4.30;1.27;;;17.10;99.90;;;;;;5076993;28;20024;-86
2021/08/28 09:25:00;;;;;;;1.77;1.10;;;17.40;99.90;;;;;;5076345;28;20016;-85
2021/08/28 09:27:41;;;;;;;2.80;1.40;;;17.80;99.90;;;;;;5077757;28;20381;-89
2021/08/28 09:30:18;;;;;;;4.18;1.40;;;17.80;99.90;;;;;;5077621;28;20024;-90
2021/08/28 09:32:58;;;;;;;1.17;1.08;;;18.20;99.90;;;;;;5076870;28;20081;-90
2021/08/28 09:35:29;;;;;;;2.25;1.10;;;18.50;99.90;;;;;;5077893;28;20119;-91
2021/08/28 09:37:59;;;;;;;2.72;0.70;;;18.40;99.90;;;;;;5078141;28;20140;-90
2021/08/28 09:40:41;;;;;;;3.55;1.30;;;18.40;99.90;;;;;;5077614;28;20031;-91
2021/08/28 09:43:11;;;;;;;2.60;1.05;;;18.40;99.90;;;;;;5077310;28;20024;-89
2021/08/28 09:45:37;;;;;;;2.33;0.90;;;18.50;99.90;;;;;;5078433;28;20119;-90
2021/08/28 09:48:07;;;;;;;2.33;1.48;;;18.40;99.90;;;;;;5077124;28;20056;-90
2021/08/28 09:50:54;;;;;;;3.50;1.30;;;18.40;99.90;;;;;;5077467;28;20043;-91
2021/08/28 09:53:22;;;;;;;2.75;1.67;;;18.30;99.90;;;;;;5077061;28;20024;-91
2021/08/28 09:55:57;;;;;;;1.27;1.00;;;18.30;99.90;;;;;;5095046;28;20425;-91
2021/08/28 09:58:25;;;;;;;2.03;0.90;;;18.20;99.90;;;;;;5077277;28;20028;-91
2021/08/28 10:00:51;;;;;;;2.67;1.10;;;17.90;99.90;;;;;;5077308;28;20072;-91
2021/08/28 10:03:18;;;;;;;1.58;0.90;;;17.80;99.90;;;;;;5077820;28;20016;-91
2021/08/28 10:05:47;;;;;;;4.35;1.10;;;17.70;99.90;;;;;;5078057;28;20108;-91
2021/08/28 10:08:15;;;;;;;3.45;1.02;;;17.80;99.90;;;;;;5077847;28;20165;-91
2021/08/28 10:10:41;;;;;;;2.33;1.00;;;17.60;99.90;;;;;;5077323;28;20024;-91
2021/08/28 10:13:08;;;;;;;0.90;0.73;;;17.30;99.90;;;;;;5077886;28;20030;-90
2021/08/28 10:15:36;;;;;;;1.80;1.10;;;17.30;99.90;;;;;;5077511;28;20032;-91
2021/08/28 10:18:04;;;;;;;2.47;1.30;;;17.40;99.90;;;;;;5077775;28;20031;-90
2021/08/28 10:20:31;;;;;;;1.08;0.80;;;17.40;99.90;;;;;;5077107;28;20027;-90
2021/08/28 10:23:01;;;;;;;2.85;1.80;;;17.20;99.90;;;;;;5077102;28;20020;-90
2021/08/28 10:25:30;;;;;;;3.30;1.80;;;17.30;99.90;;;;;;5077164;28;20054;-91
2021/08/28 10:27:56;;;;;;;3.92;2.25;;;17.30;99.90;;;;;;5078551;28;20031;-91
2021/08/28 10:30:24;;;;;;;2.80;1.63;;;17.30;99.90;;;;;;5081498;28;20091;-90
2021/08/28 10:32:52;;;;;;;2.83;1.30;;;17.20;99.90;;;;;;5083241;28;20461;-90
2021/08/28 10:35:20;;;;;;;6.57;1.45;;;17.20;99.90;;;;;;5094044;28;20028;-91
2021/08/28 10:37:46;;;;;;;1.90;1.20;;;17.10;99.90;;;;;;5092751;28;20468;-91
2021/08/28 10:40:21;;;;;;;3.40;1.40;;;17.10;99.90;;;;;;5081455;28;20024;-92
2021/08/28 10:42:51;;;;;;;2.05;1.38;;;17.10;99.90;;;;;;5080955;28;20021;-92
2021/08/28 10:45:23;;;;;;;2.97;1.38;;;17.00;99.90;;;;;;5078604;28;20046;-92
2021/08/28 10:47:57;;;;;;;3.95;1.30;;;17.00;99.90;;;;;;5079325;28;20046;-92
2021/08/28 10:50:23;;;;;;;1.42;0.93;;;16.90;99.90;;;;;;5078954;28;20024;-92
2021/08/28 10:52:50;;;;;;;2.10;1.60;;;17.10;99.90;;;;;;5078641;28;20036;-93
2021/08/28 10:55:17;;;;;;;2.88;1.02;;;17.00;99.90;;;;;;5077429;28;20024;-92
2021/08/28 10:57:43;;;;;;;5.35;1.35;;;16.90;99.90;;;;;;5095462;28;20024;-92
2021/08/28 11:00:13;;;;;;;2.50;1.35;;;17.00;99.90;;;;;;5078393;28;20020;-91
2021/08/28 11:02:55;;;;;;;2.95;1.25;;;17.00;99.90;;;;;;5078884;28;20025;-92
2021/08/28 11:05:31;;;;;;;2.42;1.33;;;16.90;99.90;;;;;;5095238;28;20484;-91
2021/08/28 11:08:18;;;;;;;2.22;1.30;;;16.90;99.90;;;;;;5095190;28;20078;-91
2021/08/28 11:11:07;;;;;;;1.75;1.30;;;16.90;99.90;;;;;;5076676;28;20124;-91
2021/08/28 11:13:56;;;;;;;1.75;1.10;;;16.80;99.90;;;;;;5094448;28;20028;-90
2021/08/28 11:16:43;;;;;;;2.30;1.63;;;16.90;99.90;;;;;;5076243;28;20360;-89
2021/08/28 11:19:12;;;;;;;2.40;1.45;;;16.70;99.90;;;;;;5075444;28;20028;-88
2021/08/28 11:21:45;;;;;;;2.63;1.60;;;16.60;99.90;;;;;;5076409;28;20073;-89
2021/08/28 11:24:22;;;;;;;2.00;1.27;;;16.30;99.90;;;;;;5079844;28;20020;-90
2021/08/28 11:26:50;;;;;;;2.90;1.83;;;16.40;99.90;;;;;;5079317;28;20050;-90
2021/08/28 11:29:17;;;;;;;1.80;1.48;;;16.40;99.90;;;;;;5079237;28;20032;-90
2021/08/28 11:32:03;;;;;;;2.95;1.50;;;16.40;99.90;;;;;;5079157;28;20023;-91
2021/08/28 11:34:29;;;;;;;2.40;1.92;;;16.40;99.90;;;;;;5079118;28;20032;-89
2021/08/28 11:37:23;;;;;;;4.05;2.25;;;16.50;99.90;;;;;;5078799;28;20495;-90
2021/08/28 11:39:50;;;;;;;7.10;2.60;;;16.40;99.90;;;;;;5078646;28;20059;-89
2021/08/28 11:42:16;;;;;;;4.20;2.08;;;16.30;99.90;;;;;;5096954;28;20377;-89
2021/08/28 11:44:50;;;;;;;3.67;1.60;;;16.20;99.90;;;;;;5078871;28;20028;-90
2021/08/28 11:47:16;;;;;;;1.58;1.10;;;16.40;99.90;;;;;;5097230;28;20103;-89
2021/08/28 11:49:42;;;;;;;2.83;1.40;;;16.40;99.90;;;;;;5079099;28;20084;-90
2021/08/28 11:52:08;;;;;;;3.13;1.10;;;16.50;99.90;;;;;;5079289;28;20449;-90
2021/08/28 11:54:34;;;;;;;3.60;1.20;;;16.60;99.90;;;;;;5097229;28;20031;-89
2021/08/28 11:57:00;;;;;;;1.52;1.00;;;16.70;99.90;;;;;;5078830;28;20028;-89
2021/08/28 11:59:40;;;;;;;1.02;0.90;;;16.90;99.90;;;;;;5078696;28;20043;-90
2021/08/28 12:02:07;;;;;;;1.63;0.85;;;16.90;99.90;;;;;;5079913;28;20381;-89
2021/08/28 12:04:37;;;;;;;1.70;0.82;;;16.80;99.90;;;;;;5097092;28;20024;-90
2021/08/28 12:07:05;;;;;;;2.40;0.98;;;17.00;99.90;;;;;;5097156;28;20027;-93
2021/08/28 12:09:31;;;;;;;1.50;0.70;;;17.00;99.90;;;;;;5080076;28;20054;-92
2021/08/28 12:11:58;;;;;;;1.45;0.80;;;17.10;99.90;;;;;;5080098;28;20063;-92
2021/08/28 12:14:30;;;;;;;1.60;0.88;;;17.10;99.90;;;;;;5079644;28;20063;-92
2021/08/28 12:16:56;;;;;;;1.90;1.02;;;16.90;99.90;;;;;;5079210;28;20081;-92
2021/08/28 12:19:24;;;;;;;3.28;0.93;;;16.80;99.90;;;;;;5080511;28;20020;-93
2021/08/28 12:21:55;;;;;;;2.05;0.90;;;16.90;99.90;;;;;;5079841;28;20384;-92
2021/08/28 12:24:36;;;;;;;1.35;0.85;;;16.80;99.90;;;;;;5079821;28;20024;-92
2021/08/28 12:27:05;;;;;;;1.27;0.80;;;16.80;99.90;;;;;;5079758;28;20024;-93
2021/08/28 12:29:32;;;;;;;1.27;0.80;;;16.80;99.90;;;;;;5080082;28;20024;-92
2021/08/28 12:32:10;;;;;;;2.08;0.90;;;16.90;99.90;;;;;;5079077;28;20024;-92
2021/08/28 12:34:38;;;;;;;2.83;2.53;;;16.80;99.90;;;;;;5097100;28;20397;-93
2021/08/28 12:37:13;;;;;;;2.63;1.10;;;16.90;99.90;;;;;;5079084;28;20496;-92
2021/08/28 12:39:41;;;;;;;1.15;0.75;;;16.70;99.90;;;;;;5079196;28;20054;-91
2021/08/28 12:42:11;;;;;;;0.90;0.82;;;16.80;99.90;;;;;;5079746;28;20046;-92
2021/08/28 12:44:37;;;;;;;1.77;1.10;;;16.60;99.90;;;;;;5080089;28;20122;-92
2021/08/28 12:47:03;;;;;;;1.63;0.90;;;16.60;99.90;;;;;;5090131;28;20027;-93
2021/08/28 12:49:32;;;;;;;1.90;0.80;;;16.60;99.90;;;;;;5081694;28;20040;-92
2021/08/28 12:51:58;;;;;;;1.77;0.60;;;16.60;99.90;;;;;;5066244;28;20039;-91
2021/08/28 12:54:37;;;;;;;1.88;0.80;;;16.80;99.90;;;;;;5057150;28;20045;-92